Terminal Aerodrome Forecast
Issued by NWS

Home | Current Version | Previous Version | Text Only | Print | Product List | Glossary On
Versions: 1 2 3 4 5 6 7 8 9 10 11 12 13 14 15
000
FTUS46 KMTR 271135
TAFSTS
TAF
KSTS 271135Z 2712/2812 VRB03KT P6SM OVC012
     FM272000 17009KT P6SM SCT015
     FM272200 17010KT P6SM SKC
     FM280400 14005KT P6SM BKN015
     FM280800 VRB03KT P6SM OVC012=

USA.gov is the U.S. government's official web portal to all federal, state and local government web resources and services.